Time,TemperatureF,DewpointF,PressureIn,WindDirection,WindDirectionDegrees,WindSpeedMPH,WindSpeedGustMPH,Humidity,HourlyPrecipIn,Conditions,Clouds,dailyrainin,SolarRadiationWatts/m^2,SoftwareType,DateUTC
2013-03-20 00:22:00,25.0,-2.0,-100.00,NE,49,1.0,5.0,30,0.00,,,0.00,1.000000,,2013-03-20 06:22:00,
2013-03-20 00:32:00,25.0,-2.0,-100.00,NE,49,1.0,5.0,30,0.00,,,0.00,1.000000,,2013-03-20 06:32:00,
2013-03-20 00:42:00,25.0,-2.0,-100.00,NE,49,1.0,5.0,30,0.00,,,0.00,1.000000,,2013-03-20 06:42:00,
2013-03-20 00:52:00,25.0,-2.0,-100.00,NE,49,1.0,5.0,30,0.00,,,0.00,1.000000,,2013-03-20 06:52:00,
2013-03-20 01:22:00,25.0,-1.0,-100.00,ENE,69,4.0,6.0,32,0.00,,,0.00,1.000000,,2013-03-20 07:22:00,
2013-03-20 01:32:00,25.0,-1.0,-100.00,ENE,69,4.0,6.0,32,0.00,,,0.00,1.000000,,2013-03-20 07:32:00,
2013-03-20 01:42:00,25.0,-1.0,-100.00,ENE,69,4.0,6.0,32,0.00,,,0.00,1.000000,,2013-03-20 07:42:00,
2013-03-20 01:52:00,25.0,-1.0,-100.00,ENE,69,4.0,6.0,32,0.00,,,0.00,1.000000,,2013-03-20 07:52:00,
2013-03-20 02:22:00,24.0,0.0,-100.00,NE,44,1.0,5.0,35,0.00,,,0.00,1.000000,,2013-03-20 08:22:00,
2013-03-20 02:32:00,24.0,0.0,-100.00,NE,44,1.0,5.0,35,0.00,,,0.00,1.000000,,2013-03-20 08:32:00,
2013-03-20 02:42:00,24.0,0.0,-100.00,NE,44,1.0,5.0,35,0.00,,,0.00,1.000000,,2013-03-20 08:42:00,
2013-03-20 02:51:00,24.0,0.0,-100.00,NE,44,1.0,5.0,35,0.00,,,0.00,1.000000,,2013-03-20 08:51:00,
2013-03-20 03:22:00,24.0,2.0,-100.00,ENE,60,2.0,4.0,38,0.00,,,0.00,1.000000,,2013-03-20 09:22:00,
2013-03-20 03:32:00,24.0,2.0,-100.00,ENE,60,2.0,4.0,38,0.00,,,0.00,1.000000,,2013-03-20 09:32:00,
2013-03-20 03:43:00,24.0,2.0,-100.00,ENE,60,2.0,4.0,38,0.00,,,0.00,1.000000,,2013-03-20 09:43:00,
2013-03-20 03:52:00,24.0,2.0,-100.00,ENE,60,2.0,4.0,38,0.00,,,0.00,1.000000,,2013-03-20 09:52:00,
2013-03-20 04:22:00,24.0,2.0,-100.00,ENE,64,2.0,4.0,37,0.00,,,0.00,1.000000,,2013-03-20 10:22:00,
2013-03-20 04:32:00,24.0,2.0,-100.00,ENE,64,2.0,4.0,37,0.00,,,0.00,1.000000,,2013-03-20 10:32:00,
2013-03-20 04:42:00,24.0,2.0,-100.00,ENE,64,2.0,4.0,37,0.00,,,0.00,1.000000,,2013-03-20 10:42:00,
2013-03-20 04:52:00,24.0,2.0,-100.00,ENE,64,2.0,4.0,37,0.00,,,0.00,1.000000,,2013-03-20 10:52:00,
2013-03-20 05:22:00,24.0,0.0,-100.00,ENE,59,2.0,4.0,35,0.00,,,0.00,1.000000,,2013-03-20 11:22:00,
2013-03-20 05:32:00,24.0,0.0,-100.00,ENE,59,2.0,4.0,35,0.00,,,0.00,1.000000,,2013-03-20 11:32:00,
2013-03-20 05:42:00,24.0,0.0,-100.00,ENE,59,2.0,4.0,35,0.00,,,0.00,1.000000,,2013-03-20 11:42:00,
2013-03-20 05:52:00,24.0,0.0,-100.00,ENE,59,2.0,4.0,35,0.00,,,0.00,1.000000,,2013-03-20 11:52:00,
2013-03-20 06:22:00,24.0,-2.0,-100.00,NE,47,1.0,4.0,32,0.00,,,0.00,1.000000,,2013-03-20 12:22:00,
2013-03-20 06:32:00,24.0,-2.0,-100.00,NE,47,1.0,4.0,32,0.00,,,0.00,1.000000,,2013-03-20 12:32:00,
2013-03-20 06:42:00,24.0,-2.0,-100.00,NE,47,1.0,4.0,32,0.00,,,0.00,1.000000,,2013-03-20 12:42:00,
2013-03-20 06:52:00,24.0,-2.0,-100.00,NE,47,1.0,4.0,32,0.00,,,0.00,1.000000,,2013-03-20 12:52:00,
2013-03-20 07:22:00,24.0,-2.0,-100.00,East,99,1.0,2.0,31,0.00,,,0.00,1.000000,,2013-03-20 13:22:00,
2013-03-20 07:32:00,24.0,-2.0,-100.00,East,99,1.0,2.0,31,0.00,,,0.00,1.000000,,2013-03-20 13:32:00,
2013-03-20 07:42:00,24.0,-2.0,-100.00,East,99,1.0,2.0,31,0.00,,,0.00,1.000000,,2013-03-20 13:42:00,
2013-03-20 07:52:00,24.0,-2.0,-100.00,East,99,1.0,2.0,31,0.00,,,0.00,1.000000,,2013-03-20 13:52:00,
2013-03-20 08:22:00,26.0,-2.0,-100.00,NE,51,2.0,3.0,29,0.00,,,0.00,18.000000,,2013-03-20 14:22:00,
2013-03-20 08:33:00,26.0,-2.0,-100.00,NE,51,2.0,3.0,29,0.00,,,0.00,18.000000,,2013-03-20 14:33:00,
2013-03-20 08:42:00,26.0,-2.0,-100.00,NE,51,2.0,3.0,29,0.00,,,0.00,18.000000,,2013-03-20 14:42:00,
2013-03-20 08:52:00,26.0,-2.0,-100.00,NE,51,2.0,3.0,29,0.00,,,0.00,18.000000,,2013-03-20 14:52:00,
2013-03-20 09:22:00,32.0,-1.0,-100.00,ENE,70,2.0,4.0,24,0.00,,,0.00,83.000000,,2013-03-20 15:22:00,
2013-03-20 09:33:00,32.0,-1.0,-100.00,ENE,70,2.0,4.0,24,0.00,,,0.00,83.000000,,2013-03-20 15:33:00,
2013-03-20 09:43:00,32.0,-1.0,-100.00,ENE,70,2.0,4.0,24,0.00,,,0.00,83.000000,,2013-03-20 15:43:00,
2013-03-20 09:52:00,32.0,-1.0,-100.00,ENE,70,2.0,4.0,24,0.00,,,0.00,83.000000,,2013-03-20 15:52:00,
2013-03-20 10:23:00,40.0,1.0,-100.00,NNE,28,1.0,3.0,19,0.00,,,0.00,200.000000,,2013-03-20 16:23:00,
2013-03-20 10:32:00,40.0,1.0,-100.00,NNE,28,1.0,3.0,19,0.00,,,0.00,200.000000,,2013-03-20 16:32:00,
2013-03-20 10:42:00,40.0,1.0,-100.00,NNE,28,1.0,3.0,19,0.00,,,0.00,200.000000,,2013-03-20 16:42:00,
2013-03-20 10:52:00,40.0,1.0,-100.00,NNE,28,1.0,3.0,19,0.00,,,0.00,200.000000,,2013-03-20 16:52:00,
2013-03-20 11:22:00,43.0,5.0,-100.00,NE,35,2.0,4.0,20,0.00,,,0.00,260.000000,,2013-03-20 17:22:00,
2013-03-20 11:32:00,43.0,5.0,-100.00,NE,35,2.0,4.0,20,0.00,,,0.00,260.000000,,2013-03-20 17:32:00,
2013-03-20 11:42:00,43.0,5.0,-100.00,NE,35,2.0,4.0,20,0.00,,,0.00,260.000000,,2013-03-20 17:42:00,
2013-03-20 11:52:00,43.0,5.0,-100.00,NE,35,2.0,4.0,20,0.00,,,0.00,260.000000,,2013-03-20 17:52:00,
2013-03-20 12:22:00,48.0,12.0,-100.00,SW,233,3.0,7.0,23,0.00,,,0.00,360.000000,,2013-03-20 18:22:00,
2013-03-20 12:33:00,48.0,12.0,-100.00,SW,233,3.0,7.0,23,0.00,,,0.00,360.000000,,2013-03-20 18:33:00,
2013-03-20 12:42:00,48.0,12.0,-100.00,SW,233,3.0,7.0,23,0.00,,,0.00,360.000000,,2013-03-20 18:42:00,
2013-03-20 12:52:00,48.0,12.0,-100.00,SW,233,3.0,7.0,23,0.00,,,0.00,360.000000,,2013-03-20 18:52:00,
2013-03-20 13:22:00,48.0,13.0,-100.00,West,269,5.0,10.0,24,0.00,,,0.00,415.000000,,2013-03-20 19:22:00,
2013-03-20 13:32:00,48.0,13.0,-100.00,West,269,5.0,10.0,24,0.00,,,0.00,415.000000,,2013-03-20 19:32:00,
2013-03-20 13:42:00,48.0,13.0,-100.00,West,269,5.0,10.0,24,0.00,,,0.00,415.000000,,2013-03-20 19:42:00,
2013-03-20 13:52:00,48.0,13.0,-100.00,West,269,5.0,10.0,24,0.00,,,0.00,415.000000,,2013-03-20 19:52:00,
2013-03-20 14:22:00,46.0,16.0,-100.00,WSW,255,8.0,16.0,30,0.00,,,0.00,327.000000,,2013-03-20 20:22:00,
2013-03-20 14:32:00,46.0,16.0,-100.00,WSW,255,8.0,16.0,30,0.00,,,0.00,327.000000,,2013-03-20 20:32:00,
2013-03-20 14:42:00,46.0,16.0,-100.00,WSW,255,8.0,16.0,30,0.00,,,0.00,327.000000,,2013-03-20 20:42:00,
2013-03-20 14:52:00,46.0,16.0,-100.00,WSW,255,8.0,16.0,30,0.00,,,0.00,327.000000,,2013-03-20 20:52:00,
2013-03-20 15:22:00,45.0,21.0,-100.00,WSW,258,6.0,18.0,38,0.00,,,0.00,279.000000,,2013-03-20 21:22:00,
2013-03-20 15:33:00,45.0,21.0,-100.00,WSW,258,6.0,18.0,38,0.00,,,0.00,279.000000,,2013-03-20 21:33:00,
2013-03-20 15:42:00,45.0,21.0,-100.00,WSW,258,6.0,18.0,38,0.00,,,0.00,279.000000,,2013-03-20 21:42:00,
2013-03-20 15:52:00,45.0,21.0,-100.00,WSW,258,6.0,18.0,38,0.00,,,0.00,279.000000,,2013-03-20 21:52:00,
2013-03-20 16:23:00,45.0,22.0,-100.00,SSW,203,3.0,15.0,39,0.00,,,0.00,232.000000,,2013-03-20 22:23:00,
2013-03-20 16:32:00,45.0,22.0,-100.00,SSW,203,3.0,15.0,39,0.00,,,0.00,232.000000,,2013-03-20 22:32:00,
2013-03-20 16:42:00,45.0,22.0,-100.00,SSW,203,3.0,15.0,39,0.00,,,0.00,232.000000,,2013-03-20 22:42:00,
2013-03-20 16:52:00,45.0,22.0,-100.00,SSW,203,3.0,15.0,39,0.00,,,0.00,232.000000,,2013-03-20 22:52:00,
2013-03-20 17:22:00,44.0,21.0,-100.00,WSW,238,4.0,12.0,39,0.00,,,0.00,138.000000,,2013-03-20 23:22:00,
2013-03-20 17:32:00,44.0,21.0,-100.00,WSW,238,4.0,12.0,39,0.00,,,0.00,138.000000,,2013-03-20 23:32:00,
2013-03-20 17:42:00,44.0,21.0,-100.00,WSW,238,4.0,12.0,39,0.00,,,0.00,138.000000,,2013-03-20 23:42:00,
2013-03-20 17:52:00,44.0,21.0,-100.00,WSW,238,4.0,12.0,39,0.00,,,0.00,138.000000,,2013-03-20 23:52:00,
2013-03-20 18:22:00,41.0,25.0,-100.00,SSW,208,5.0,12.0,52,0.00,,,0.00,77.000000,,2013-03-21 00:22:00,
2013-03-20 18:32:00,41.0,25.0,-100.00,SSW,208,5.0,12.0,52,0.00,,,0.00,77.000000,,2013-03-21 00:32:00,
2013-03-20 18:42:00,41.0,25.0,-100.00,SSW,208,5.0,12.0,52,0.00,,,0.00,77.000000,,2013-03-21 00:42:00,
2013-03-20 18:52:00,41.0,25.0,-100.00,SSW,208,5.0,12.0,52,0.00,,,0.00,77.000000,,2013-03-21 00:52:00,
2013-03-20 19:22:00,40.0,26.0,-100.00,SSE,162,2.0,10.0,56,0.00,,,0.00,51.000000,,2013-03-21 01:22:00,
2013-03-20 19:32:00,40.0,26.0,-100.00,SSE,162,2.0,10.0,56,0.00,,,0.00,51.000000,,2013-03-21 01:32:00,
2013-03-20 19:42:00,40.0,26.0,-100.00,SSE,162,2.0,10.0,56,0.00,,,0.00,51.000000,,2013-03-21 01:42:00,
2013-03-20 19:52:00,40.0,26.0,-100.00,SSE,162,2.0,10.0,56,0.00,,,0.00,51.000000,,2013-03-21 01:52:00,
2013-03-20 20:22:00,39.0,24.0,-100.00,SSE,165,2.0,6.0,55,0.00,,,0.00,6.000000,,2013-03-21 02:22:00,
2013-03-20 20:32:00,39.0,24.0,-100.00,SSE,165,2.0,6.0,55,0.00,,,0.00,6.000000,,2013-03-21 02:32:00,
2013-03-20 20:42:00,39.0,24.0,-100.00,SSE,165,2.0,6.0,55,0.00,,,0.00,6.000000,,2013-03-21 02:42:00,
2013-03-20 20:51:00,39.0,24.0,-100.00,SSE,165,2.0,6.0,55,0.00,,,0.00,6.000000,,2013-03-21 02:51:00,
2013-03-20 21:22:00,39.0,24.0,-100.00,South,182,3.0,7.0,54,0.00,,,0.00,1.000000,,2013-03-21 03:22:00,
2013-03-20 21:32:00,39.0,24.0,-100.00,South,182,3.0,7.0,54,0.00,,,0.00,1.000000,,2013-03-21 03:32:00,
2013-03-20 21:43:00,39.0,24.0,-100.00,South,182,3.0,7.0,54,0.00,,,0.00,1.000000,,2013-03-21 03:43:00,
2013-03-20 21:52:00,39.0,24.0,-100.00,South,182,3.0,7.0,54,0.00,,,0.00,1.000000,,2013-03-21 03:52:00,
2013-03-20 22:22:00,38.0,24.0,-100.00,SSE,159,3.0,8.0,56,0.00,,,0.00,1.000000,,2013-03-21 04:22:00,
2013-03-20 22:32:00,38.0,24.0,-100.00,SSE,159,3.0,8.0,56,0.00,,,0.00,1.000000,,2013-03-21 04:32:00,
2013-03-20 22:43:00,38.0,24.0,-100.00,SSE,159,3.0,8.0,56,0.00,,,0.00,1.000000,,2013-03-21 04:43:00,
2013-03-20 22:52:00,38.0,24.0,-100.00,SSE,159,3.0,8.0,56,0.00,,,0.00,1.000000,,2013-03-21 04:52:00,
2013-03-20 23:22:00,38.0,24.0,-100.00,SSE,153,2.0,7.0,57,0.00,,,0.00,1.000000,,2013-03-21 05:22:00,
2013-03-20 23:32:00,38.0,24.0,-100.00,SSE,153,2.0,7.0,57,0.00,,,0.00,1.000000,,2013-03-21 05:32:00,
2013-03-20 23:43:00,38.0,24.0,-100.00,SSE,153,2.0,7.0,57,0.00,,,0.00,1.000000,,2013-03-21 05:43:00,
2013-03-20 23:51:00,38.0,24.0,-100.00,SSE,153,2.0,7.0,57,0.00,,,0.00,1.000000,,2013-03-21 05:51:00,